sensor_id;sensor_type;location;lat;lon;timestamp;temperature;humidity
21807;DHT22;11065;50.786;7.840;2023-05-29T00:02:14;16.80;38.80
21807;DHT22;11065;50.786;7.840;2023-05-29T00:04:42;16.80;38.90
21807;DHT22;11065;50.786;7.840;2023-05-29T00:07:12;16.70;39.00
21807;DHT22;11065;50.786;7.840;2023-05-29T00:09:40;16.70;39.10
21807;DHT22;11065;50.786;7.840;2023-05-29T00:12:08;16.60;39.10
21807;DHT22;11065;50.786;7.840;2023-05-29T00:14:36;16.60;39.20
21807;DHT22;11065;50.786;7.840;2023-05-29T00:17:04;16.60;39.30
21807;DHT22;11065;50.786;7.840;2023-05-29T00:19:32;16.50;39.40
21807;DHT22;11065;50.786;7.840;2023-05-29T00:22:01;16.50;39.50
21807;DHT22;11065;50.786;7.840;2023-05-29T00:24:30;16.40;39.50
21807;DHT22;11065;50.786;7.840;2023-05-29T00:26:58;16.40;39.60
21807;DHT22;11065;50.786;7.840;2023-05-29T00:29:28;16.30;39.60
21807;DHT22;11065;50.786;7.840;2023-05-29T00:31:57;16.30;39.70
21807;DHT22;11065;50.786;7.840;2023-05-29T00:34:25;16.20;39.70
21807;DHT22;11065;50.786;7.840;2023-05-29T00:36:53;16.10;39.80
21807;DHT22;11065;50.786;7.840;2023-05-29T00:39:22;16.10;39.90
21807;DHT22;11065;50.786;7.840;2023-05-29T00:41:51;16.10;40.00
21807;DHT22;11065;50.786;7.840;2023-05-29T00:44:21;16.00;40.20
21807;DHT22;11065;50.786;7.840;2023-05-29T00:46:52;16.00;40.50
21807;DHT22;11065;50.786;7.840;2023-05-29T00:49:22;15.90;40.60
21807;DHT22;11065;50.786;7.840;2023-05-29T00:51:51;15.80;40.70
21807;DHT22;11065;50.786;7.840;2023-05-29T00:54:26;15.70;40.60
21807;DHT22;11065;50.786;7.840;2023-05-29T00:56:58;15.70;40.70
21807;DHT22;11065;50.786;7.840;2023-05-29T00:59:27;15.70;40.80
21807;DHT22;11065;50.786;7.840;2023-05-29T01:01:57;15.60;40.70
21807;DHT22;11065;50.786;7.840;2023-05-29T01:04:26;15.60;40.80
21807;DHT22;11065;50.786;7.840;2023-05-29T01:06:54;15.50;40.80
21807;DHT22;11065;50.786;7.840;2023-05-29T01:09:24;15.50;40.90
21807;DHT22;11065;50.786;7.840;2023-05-29T01:11:59;15.40;41.00
21807;DHT22;11065;50.786;7.840;2023-05-29T01:14:36;15.40;41.30
21807;DHT22;11065;50.786;7.840;2023-05-29T01:17:11;15.40;41.30
21807;DHT22;11065;50.786;7.840;2023-05-29T01:19:53;15.30;41.20
21807;DHT22;11065;50.786;7.840;2023-05-29T01:22:36;15.30;41.40
21807;DHT22;11065;50.786;7.840;2023-05-29T01:25:13;15.30;41.50
21807;DHT22;11065;50.786;7.840;2023-05-29T01:27:47;15.20;41.40
21807;DHT22;11065;50.786;7.840;2023-05-29T01:30:17;15.20;41.50
21807;DHT22;11065;50.786;7.840;2023-05-29T01:32:46;15.10;41.40
21807;DHT22;11065;50.786;7.840;2023-05-29T01:35:14;15.10;41.50
21807;DHT22;11065;50.786;7.840;2023-05-29T01:37:42;15.10;41.70
21807;DHT22;11065;50.786;7.840;2023-05-29T01:40:11;15.00;41.80
21807;DHT22;11065;50.786;7.840;2023-05-29T01:42:40;15.00;41.90
21807;DHT22;11065;50.786;7.840;2023-05-29T01:45:10;14.90;41.80
21807;DHT22;11065;50.786;7.840;2023-05-29T01:47:39;14.90;42.00
21807;DHT22;11065;50.786;7.840;2023-05-29T01:50:08;14.80;42.00
21807;DHT22;11065;50.786;7.840;2023-05-29T01:52:37;14.80;42.10
21807;DHT22;11065;50.786;7.840;2023-05-29T01:55:05;14.80;42.10
21807;DHT22;11065;50.786;7.840;2023-05-29T01:57:33;14.80;42.20
21807;DHT22;11065;50.786;7.840;2023-05-29T02:00:03;14.70;42.20
21807;DHT22;11065;50.786;7.840;2023-05-29T02:02:42;14.70;42.20
21807;DHT22;11065;50.786;7.840;2023-05-29T02:05:11;14.60;42.30
21807;DHT22;11065;50.786;7.840;2023-05-29T02:07:39;14.60;42.30
21807;DHT22;11065;50.786;7.840;2023-05-29T02:10:08;14.60;42.40
21807;DHT22;11065;50.786;7.840;2023-05-29T02:12:36;14.50;42.50
21807;DHT22;11065;50.786;7.840;2023-05-29T02:15:05;14.50;42.50
21807;DHT22;11065;50.786;7.840;2023-05-29T02:17:33;14.40;42.60
21807;DHT22;11065;50.786;7.840;2023-05-29T02:20:03;14.30;42.60
21807;DHT22;11065;50.786;7.840;2023-05-29T02:22:33;14.40;42.80
21807;DHT22;11065;50.786;7.840;2023-05-29T02:25:01;14.30;42.80
21807;DHT22;11065;50.786;7.840;2023-05-29T02:27:29;14.40;42.90
21807;DHT22;11065;50.786;7.840;2023-05-29T02:29:57;14.20;42.90
21807;DHT22;11065;50.786;7.840;2023-05-29T02:32:25;14.20;43.10
21807;DHT22;11065;50.786;7.840;2023-05-29T02:34:54;14.20;43.10
21807;DHT22;11065;50.786;7.840;2023-05-29T02:37:23;14.20;43.20
21807;DHT22;11065;50.786;7.840;2023-05-29T02:39:52;14.10;43.20
21807;DHT22;11065;50.786;7.840;2023-05-29T02:42:20;14.10;43.20
21807;DHT22;11065;50.786;7.840;2023-05-29T02:44:48;14.10;43.30
21807;DHT22;11065;50.786;7.840;2023-05-29T02:47:17;14.00;43.40
21807;DHT22;11065;50.786;7.840;2023-05-29T02:49:45;14.00;43.50
21807;DHT22;11065;50.786;7.840;2023-05-29T02:52:13;14.00;43.50
21807;DHT22;11065;50.786;7.840;2023-05-29T02:54:43;14.00;43.50
21807;DHT22;11065;50.786;7.840;2023-05-29T02:57:11;13.90;43.60
21807;DHT22;11065;50.786;7.840;2023-05-29T02:59:39;13.90;43.70
21807;DHT22;11065;50.786;7.840;2023-05-29T03:02:07;13.90;43.80
21807;DHT22;11065;50.786;7.840;2023-05-29T03:04:35;13.80;43.80
21807;DHT22;11065;50.786;7.840;2023-05-29T03:07:04;13.80;43.80
21807;DHT22;11065;50.786;7.840;2023-05-29T03:09:33;13.80;43.90
21807;DHT22;11065;50.786;7.840;2023-05-29T03:12:03;13.70;44.00
21807;DHT22;11065;50.786;7.840;2023-05-29T03:14:32;13.70;44.10
21807;DHT22;11065;50.786;7.840;2023-05-29T03:17:06;13.70;44.10
21807;DHT22;11065;50.786;7.840;2023-05-29T03:19:34;13.60;44.10
21807;DHT22;11065;50.786;7.840;2023-05-29T03:22:03;13.60;44.10
21807;DHT22;11065;50.786;7.840;2023-05-29T03:24:34;13.60;44.20
21807;DHT22;11065;50.786;7.840;2023-05-29T03:27:05;13.60;44.30
21807;DHT22;11065;50.786;7.840;2023-05-29T03:29:34;13.50;44.40
21807;DHT22;11065;50.786;7.840;2023-05-29T03:32:03;13.60;44.50
21807;DHT22;11065;50.786;7.840;2023-05-29T03:34:32;13.50;44.70
21807;DHT22;11065;50.786;7.840;2023-05-29T03:37:03;13.50;44.70
21807;DHT22;11065;50.786;7.840;2023-05-29T03:39:31;13.40;44.70
21807;DHT22;11065;50.786;7.840;2023-05-29T03:41:59;13.40;44.70
21807;DHT22;11065;50.786;7.840;2023-05-29T03:44:31;13.40;44.80
21807;DHT22;11065;50.786;7.840;2023-05-29T03:46:59;13.40;44.80
21807;DHT22;11065;50.786;7.840;2023-05-29T03:49:31;13.40;44.90
21807;DHT22;11065;50.786;7.840;2023-05-29T03:51:59;13.30;44.90
21807;DHT22;11065;50.786;7.840;2023-05-29T03:54:27;13.30;45.10
21807;DHT22;11065;50.786;7.840;2023-05-29T03:56:55;13.30;45.10
21807;DHT22;11065;50.786;7.840;2023-05-29T03:59:26;13.30;45.10
21807;DHT22;11065;50.786;7.840;2023-05-29T04:01:56;13.30;45.20
21807;DHT22;11065;50.786;7.840;2023-05-29T04:04:24;13.30;45.30
21807;DHT22;11065;50.786;7.840;2023-05-29T04:06:54;13.30;45.30
21807;DHT22;11065;50.786;7.840;2023-05-29T04:09:22;13.30;45.40
21807;DHT22;11065;50.786;7.840;2023-05-29T04:11:50;13.30;45.50
21807;DHT22;11065;50.786;7.840;2023-05-29T04:14:19;13.30;45.50
21807;DHT22;11065;50.786;7.840;2023-05-29T04:16:47;13.30;45.60
21807;DHT22;11065;50.786;7.840;2023-05-29T04:19:16;13.30;45.60
21807;DHT22;11065;50.786;7.840;2023-05-29T04:21:44;13.30;45.70
21807;DHT22;11065;50.786;7.840;2023-05-29T04:24:14;13.30;45.70
21807;DHT22;11065;50.786;7.840;2023-05-29T04:26:42;13.30;45.80
21807;DHT22;11065;50.786;7.840;2023-05-29T04:29:12;13.30;45.90
21807;DHT22;11065;50.786;7.840;2023-05-29T04:31:41;13.30;46.00
21807;DHT22;11065;50.786;7.840;2023-05-29T04:34:09;13.30;46.00
21807;DHT22;11065;50.786;7.840;2023-05-29T04:36:39;13.30;46.00
21807;DHT22;11065;50.786;7.840;2023-05-29T04:39:10;13.30;46.10
21807;DHT22;11065;50.786;7.840;2023-05-29T04:41:39;13.30;46.10
21807;DHT22;11065;50.786;7.840;2023-05-29T04:44:11;13.30;46.20
21807;DHT22;11065;50.786;7.840;2023-05-29T04:46:46;13.30;46.20
21807;DHT22;11065;50.786;7.840;2023-05-29T04:49:15;13.30;46.30
21807;DHT22;11065;50.786;7.840;2023-05-29T04:51:44;13.30;46.40
21807;DHT22;11065;50.786;7.840;2023-05-29T04:54:13;13.30;46.50
21807;DHT22;11065;50.786;7.840;2023-05-29T04:56:41;13.40;47.00
21807;DHT22;11065;50.786;7.840;2023-05-29T04:59:12;13.40;46.60
21807;DHT22;11065;50.786;7.840;2023-05-29T05:01:41;13.40;46.70
21807;DHT22;11065;50.786;7.840;2023-05-29T05:04:11;13.40;46.80
21807;DHT22;11065;50.786;7.840;2023-05-29T05:06:38;13.40;46.80
21807;DHT22;11065;50.786;7.840;2023-05-29T05:09:08;13.50;46.90
21807;DHT22;11065;50.786;7.840;2023-05-29T05:11:37;13.50;47.10
21807;DHT22;11065;50.786;7.840;2023-05-29T05:14:06;13.50;47.00
21807;DHT22;11065;50.786;7.840;2023-05-29T05:16:35;13.50;47.00
21807;DHT22;11065;50.786;7.840;2023-05-29T05:19:03;13.50;47.10
21807;DHT22;11065;50.786;7.840;2023-05-29T05:21:34;13.60;47.20
21807;DHT22;11065;50.786;7.840;2023-05-29T05:24:03;13.60;47.20
21807;DHT22;11065;50.786;7.840;2023-05-29T05:26:32;13.60;47.30
21807;DHT22;11065;50.786;7.840;2023-05-29T05:29:00;13.70;47.50
21807;DHT22;11065;50.786;7.840;2023-05-29T05:31:30;13.70;47.50
21807;DHT22;11065;50.786;7.840;2023-05-29T05:33:58;13.70;47.50
21807;DHT22;11065;50.786;7.840;2023-05-29T05:36:26;13.70;47.60
21807;DHT22;11065;50.786;7.840;2023-05-29T05:39:00;13.80;47.70
21807;DHT22;11065;50.786;7.840;2023-05-29T05:41:29;13.80;47.70
21807;DHT22;11065;50.786;7.840;2023-05-29T05:43:59;13.90;47.80
21807;DHT22;11065;50.786;7.840;2023-05-29T05:47:00;13.90;47.90
21807;DHT22;11065;50.786;7.840;2023-05-29T05:49:28;14.00;47.90
21807;DHT22;11065;50.786;7.840;2023-05-29T05:51:56;14.00;48.20
21807;DHT22;11065;50.786;7.840;2023-05-29T05:54:24;14.10;48.20
21807;DHT22;11065;50.786;7.840;2023-05-29T05:56:52;14.20;48.40
21807;DHT22;11065;50.786;7.840;2023-05-29T05:59:22;14.20;48.40
21807;DHT22;11065;50.786;7.840;2023-05-29T06:01:51;14.30;48.60
21807;DHT22;11065;50.786;7.840;2023-05-29T06:04:20;14.40;48.50
21807;DHT22;11065;50.786;7.840;2023-05-29T06:06:48;14.50;48.60
21807;DHT22;11065;50.786;7.840;2023-05-29T06:09:16;14.50;48.80
21807;DHT22;11065;50.786;7.840;2023-05-29T06:11:44;14.60;48.90
21807;DHT22;11065;50.786;7.840;2023-05-29T06:14:12;14.70;49.00
21807;DHT22;11065;50.786;7.840;2023-05-29T06:16:43;14.70;49.00
21807;DHT22;11065;50.786;7.840;2023-05-29T06:19:11;14.80;49.10
21807;DHT22;11065;50.786;7.840;2023-05-29T06:21:53;14.90;49.20
21807;DHT22;11065;50.786;7.840;2023-05-29T06:24:22;15.00;49.20
21807;DHT22;11065;50.786;7.840;2023-05-29T06:26:50;15.10;49.20
21807;DHT22;11065;50.786;7.840;2023-05-29T06:29:18;15.20;49.20
21807;DHT22;11065;50.786;7.840;2023-05-29T06:31:48;15.20;49.30
21807;DHT22;11065;50.786;7.840;2023-05-29T06:34:18;15.30;49.30
21807;DHT22;11065;50.786;7.840;2023-05-29T06:36:46;15.40;49.20
21807;DHT22;11065;50.786;7.840;2023-05-29T06:39:14;15.50;49.30
21807;DHT22;11065;50.786;7.840;2023-05-29T06:41:43;15.60;49.20
21807;DHT22;11065;50.786;7.840;2023-05-29T06:44:17;15.70;49.30
21807;DHT22;11065;50.786;7.840;2023-05-29T06:46:44;15.80;49.30
21807;DHT22;11065;50.786;7.840;2023-05-29T06:49:14;15.90;49.40
21807;DHT22;11065;50.786;7.840;2023-05-29T06:51:43;15.90;49.30
21807;DHT22;11065;50.786;7.840;2023-05-29T06:54:22;16.00;49.20
21807;DHT22;11065;50.786;7.840;2023-05-29T06:56:50;16.10;49.00
21807;DHT22;11065;50.786;7.840;2023-05-29T06:59:37;16.20;49.00
21807;DHT22;11065;50.786;7.840;2023-05-29T07:02:06;16.30;49.00
21807;DHT22;11065;50.786;7.840;2023-05-29T07:04:39;16.40;49.00
21807;DHT22;11065;50.786;7.840;2023-05-29T07:07:07;16.50;49.00
21807;DHT22;11065;50.786;7.840;2023-05-29T07:09:35;16.60;49.00
21807;DHT22;11065;50.786;7.840;2023-05-29T07:12:04;16.70;48.90
21807;DHT22;11065;50.786;7.840;2023-05-29T07:14:34;16.80;49.00
21807;DHT22;11065;50.786;7.840;2023-05-29T07:17:02;16.90;48.90
21807;DHT22;11065;50.786;7.840;2023-05-29T07:19:30;16.90;48.80
21807;DHT22;11065;50.786;7.840;2023-05-29T07:22:01;17.00;48.80
21807;DHT22;11065;50.786;7.840;2023-05-29T07:24:29;17.10;48.80
21807;DHT22;11065;50.786;7.840;2023-05-29T07:26:59;17.20;48.60
21807;DHT22;11065;50.786;7.840;2023-05-29T07:29:27;17.30;48.40
21807;DHT22;11065;50.786;7.840;2023-05-29T07:31:56;17.40;48.40
21807;DHT22;11065;50.786;7.840;2023-05-29T07:34:24;17.40;48.30
21807;DHT22;11065;50.786;7.840;2023-05-29T07:36:57;17.50;48.30
21807;DHT22;11065;50.786;7.840;2023-05-29T07:39:28;17.60;48.30
21807;DHT22;11065;50.786;7.840;2023-05-29T07:41:59;17.70;48.10
21807;DHT22;11065;50.786;7.840;2023-05-29T07:44:28;17.80;48.10
21807;DHT22;11065;50.786;7.840;2023-05-29T07:46:56;17.90;48.00
21807;DHT22;11065;50.786;7.840;2023-05-29T07:49:39;18.00;48.10
21807;DHT22;11065;50.786;7.840;2023-05-29T07:52:07;18.10;48.00
21807;DHT22;11065;50.786;7.840;2023-05-29T07:54:37;18.20;47.90
21807;DHT22;11065;50.786;7.840;2023-05-29T07:57:07;18.30;47.70
21807;DHT22;11065;50.786;7.840;2023-05-29T07:59:40;18.40;47.80
21807;DHT22;11065;50.786;7.840;2023-05-29T08:02:08;18.40;47.80
21807;DHT22;11065;50.786;7.840;2023-05-29T08:04:54;18.60;47.70
21807;DHT22;11065;50.786;7.840;2023-05-29T08:07:23;18.70;47.50
21807;DHT22;11065;50.786;7.840;2023-05-29T08:09:55;18.80;47.40
21807;DHT22;11065;50.786;7.840;2023-05-29T08:12:23;18.90;47.60
21807;DHT22;11065;50.786;7.840;2023-05-29T08:14:54;19.00;47.50
21807;DHT22;11065;50.786;7.840;2023-05-29T08:17:23;19.10;47.40
21807;DHT22;11065;50.786;7.840;2023-05-29T08:19:53;19.20;47.40
21807;DHT22;11065;50.786;7.840;2023-05-29T08:22:27;19.40;47.30
21807;DHT22;11065;50.786;7.840;2023-05-29T08:24:57;19.50;47.30
21807;DHT22;11065;50.786;7.840;2023-05-29T08:27:25;19.60;47.20
21807;DHT22;11065;50.786;7.840;2023-05-29T08:30:15;19.70;47.10
21807;DHT22;11065;50.786;7.840;2023-05-29T08:32:43;19.90;46.90
21807;DHT22;11065;50.786;7.840;2023-05-29T08:35:11;20.00;46.80
21807;DHT22;11065;50.786;7.840;2023-05-29T08:37:39;20.10;46.80
21807;DHT22;11065;50.786;7.840;2023-05-29T08:40:10;20.20;46.60
21807;DHT22;11065;50.786;7.840;2023-05-29T08:42:45;20.30;46.50
21807;DHT22;11065;50.786;7.840;2023-05-29T08:45:14;20.50;46.40
21807;DHT22;11065;50.786;7.840;2023-05-29T08:47:43;20.60;46.40
21807;DHT22;11065;50.786;7.840;2023-05-29T08:50:14;20.70;46.20
21807;DHT22;11065;50.786;7.840;2023-05-29T08:52:43;20.90;46.10
21807;DHT22;11065;50.786;7.840;2023-05-29T08:55:14;21.00;46.10
21807;DHT22;11065;50.786;7.840;2023-05-29T08:57:44;21.10;45.90
21807;DHT22;11065;50.786;7.840;2023-05-29T09:00:12;21.30;45.80
21807;DHT22;11065;50.786;7.840;2023-05-29T09:02:42;21.50;45.70
21807;DHT22;11065;50.786;7.840;2023-05-29T09:05:11;21.60;45.60
21807;DHT22;11065;50.786;7.840;2023-05-29T09:07:39;21.80;45.60
21807;DHT22;11065;50.786;7.840;2023-05-29T09:10:08;22.10;45.80
21807;DHT22;11065;50.786;7.840;2023-05-29T09:12:38;22.30;45.70
21807;DHT22;11065;50.786;7.840;2023-05-29T09:15:17;22.70;45.80
21807;DHT22;11065;50.786;7.840;2023-05-29T09:17:50;23.10;45.50
21807;DHT22;11065;50.786;7.840;2023-05-29T09:20:20;23.60;45.90
21807;DHT22;11065;50.786;7.840;2023-05-29T09:22:54;24.00;46.00
21807;DHT22;11065;50.786;7.840;2023-05-29T09:25:23;24.60;45.40
21807;DHT22;11065;50.786;7.840;2023-05-29T09:27:58;25.10;45.90
21807;DHT22;11065;50.786;7.840;2023-05-29T09:30:35;25.80;45.90
21807;DHT22;11065;50.786;7.840;2023-05-29T09:33:04;26.50;45.40
21807;DHT22;11065;50.786;7.840;2023-05-29T09:35:34;27.10;45.50
21807;DHT22;11065;50.786;7.840;2023-05-29T09:38:03;27.70;44.90
21807;DHT22;11065;50.786;7.840;2023-05-29T09:40:32;28.40;44.80
21807;DHT22;11065;50.786;7.840;2023-05-29T09:43:05;29.00;44.20
21807;DHT22;11065;50.786;7.840;2023-05-29T09:45:38;29.70;43.00
21807;DHT22;11065;50.786;7.840;2023-05-29T09:48:08;30.30;42.90
21807;DHT22;11065;50.786;7.840;2023-05-29T09:50:40;30.90;42.30
21807;DHT22;11065;50.786;7.840;2023-05-29T09:53:17;31.50;41.90
21807;DHT22;11065;50.786;7.840;2023-05-29T09:55:51;32.20;40.50
21807;DHT22;11065;50.786;7.840;2023-05-29T09:58:21;32.80;40.90
21807;DHT22;11065;50.786;7.840;2023-05-29T10:00:50;33.40;39.60
21807;DHT22;11065;50.786;7.840;2023-05-29T10:03:20;33.80;39.40
21807;DHT22;11065;50.786;7.840;2023-05-29T10:05:50;34.40;39.00
21807;DHT22;11065;50.786;7.840;2023-05-29T10:08:19;34.90;38.30
21807;DHT22;11065;50.786;7.840;2023-05-29T10:10:52;35.40;37.50
21807;DHT22;11065;50.786;7.840;2023-05-29T10:13:23;35.90;36.80
21807;DHT22;11065;50.786;7.840;2023-05-29T10:15:54;36.40;36.20
21807;DHT22;11065;50.786;7.840;2023-05-29T10:18:26;36.80;35.70
21807;DHT22;11065;50.786;7.840;2023-05-29T10:20:56;37.20;35.30
21807;DHT22;11065;50.786;7.840;2023-05-29T10:23:26;37.70;35.00
21807;DHT22;11065;50.786;7.840;2023-05-29T10:26:01;38.10;34.80
21807;DHT22;11065;50.786;7.840;2023-05-29T10:28:32;38.60;34.00
21807;DHT22;11065;50.786;7.840;2023-05-29T10:31:03;39.00;33.70
21807;DHT22;11065;50.786;7.840;2023-05-29T10:33:45;39.30;32.90
21807;DHT22;11065;50.786;7.840;2023-05-29T10:36:19;39.70;31.80
21807;DHT22;11065;50.786;7.840;2023-05-29T10:38:51;39.90;32.10
21807;DHT22;11065;50.786;7.840;2023-05-29T10:41:29;40.10;32.10
21807;DHT22;11065;50.786;7.840;2023-05-29T10:44:00;40.30;30.40
21807;DHT22;11065;50.786;7.840;2023-05-29T10:47:03;40.50;30.90
21807;DHT22;11065;50.786;7.840;2023-05-29T10:49:32;40.70;30.80
21807;DHT22;11065;50.786;7.840;2023-05-29T10:52:03;41.00;30.60
21807;DHT22;11065;50.786;7.840;2023-05-29T10:54:51;41.20;30.00
21807;DHT22;11065;50.786;7.840;2023-05-29T10:57:23;41.40;29.40
21807;DHT22;11065;50.786;7.840;2023-05-29T11:00:02;41.60;29.80
21807;DHT22;11065;50.786;7.840;2023-05-29T11:02:32;41.70;28.80
21807;DHT22;11065;50.786;7.840;2023-05-29T11:05:23;41.90;29.20
21807;DHT22;11065;50.786;7.840;2023-05-29T11:07:56;42.10;28.70
21807;DHT22;11065;50.786;7.840;2023-05-29T11:10:43;42.20;28.60
21807;DHT22;11065;50.786;7.840;2023-05-29T11:13:24;42.30;28.00
21807;DHT22;11065;50.786;7.840;2023-05-29T11:16:35;42.40;27.80
21807;DHT22;11065;50.786;7.840;2023-05-29T11:19:05;42.40;27.80
21807;DHT22;11065;50.786;7.840;2023-05-29T11:21:49;42.40;28.00
21807;DHT22;11065;50.786;7.840;2023-05-29T11:24:22;42.40;27.40
21807;DHT22;11065;50.786;7.840;2023-05-29T11:26:53;42.50;27.70
21807;DHT22;11065;50.786;7.840;2023-05-29T11:29:22;42.60;27.60
21807;DHT22;11065;50.786;7.840;2023-05-29T11:31:58;42.70;27.10
21807;DHT22;11065;50.786;7.840;2023-05-29T11:34:29;42.80;26.70
21807;DHT22;11065;50.786;7.840;2023-05-29T11:36:58;42.80;27.20
21807;DHT22;11065;50.786;7.840;2023-05-29T11:39:32;42.90;27.10
21807;DHT22;11065;50.786;7.840;2023-05-29T11:42:10;42.80;26.70
21807;DHT22;11065;50.786;7.840;2023-05-29T11:44:38;42.70;26.40
21807;DHT22;11065;50.786;7.840;2023-05-29T11:47:08;42.30;26.00
21807;DHT22;11065;50.786;7.840;2023-05-29T11:49:36;41.90;25.90
21807;DHT22;11065;50.786;7.840;2023-05-29T11:52:08;41.50;26.00
21807;DHT22;11065;50.786;7.840;2023-05-29T11:54:43;41.20;25.90
21807;DHT22;11065;50.786;7.840;2023-05-29T11:57:17;41.00;26.10
21807;DHT22;11065;50.786;7.840;2023-05-29T11:59:45;40.70;25.80
21807;DHT22;11065;50.786;7.840;2023-05-29T12:02:15;40.30;25.70
21807;DHT22;11065;50.786;7.840;2023-05-29T12:04:43;39.90;25.60
21807;DHT22;11065;50.786;7.840;2023-05-29T12:07:17;39.40;25.70
21807;DHT22;11065;50.786;7.840;2023-05-29T12:09:45;38.80;25.60
21807;DHT22;11065;50.786;7.840;2023-05-29T12:12:15;38.20;25.80
21807;DHT22;11065;50.786;7.840;2023-05-29T12:14:43;37.80;26.20
21807;DHT22;11065;50.786;7.840;2023-05-29T12:17:11;37.50;27.00
21807;DHT22;11065;50.786;7.840;2023-05-29T12:19:41;37.30;26.80
21807;DHT22;11065;50.786;7.840;2023-05-29T12:22:09;37.30;27.00
21807;DHT22;11065;50.786;7.840;2023-05-29T12:24:37;37.30;27.20
21807;DHT22;11065;50.786;7.840;2023-05-29T12:27:09;37.40;27.40
21807;DHT22;11065;50.786;7.840;2023-05-29T12:29:37;37.50;27.60
21807;DHT22;11065;50.786;7.840;2023-05-29T12:32:09;37.70;27.40
21807;DHT22;11065;50.786;7.840;2023-05-29T12:34:38;37.80;27.30
21807;DHT22;11065;50.786;7.840;2023-05-29T12:37:09;37.80;27.10
21807;DHT22;11065;50.786;7.840;2023-05-29T12:39:41;37.80;27.10
21807;DHT22;11065;50.786;7.840;2023-05-29T12:42:09;37.80;27.10
21807;DHT22;11065;50.786;7.840;2023-05-29T12:44:37;37.70;27.20
21807;DHT22;11065;50.786;7.840;2023-05-29T12:47:06;37.70;27.10
21807;DHT22;11065;50.786;7.840;2023-05-29T12:49:36;37.60;27.00
21807;DHT22;11065;50.786;7.840;2023-05-29T12:52:09;37.40;26.80
21807;DHT22;11065;50.786;7.840;2023-05-29T12:54:38;37.20;26.80
21807;DHT22;11065;50.786;7.840;2023-05-29T12:57:07;37.00;26.90
21807;DHT22;11065;50.786;7.840;2023-05-29T12:59:35;36.90;27.00
21807;DHT22;11065;50.786;7.840;2023-05-29T13:02:03;36.80;27.10
21807;DHT22;11065;50.786;7.840;2023-05-29T13:04:34;36.90;27.20
21807;DHT22;11065;50.786;7.840;2023-05-29T13:07:02;36.90;27.30
21807;DHT22;11065;50.786;7.840;2023-05-29T13:09:31;36.90;27.20
21807;DHT22;11065;50.786;7.840;2023-05-29T13:12:00;36.90;27.10
21807;DHT22;11065;50.786;7.840;2023-05-29T13:14:28;37.00;27.30
21807;DHT22;11065;50.786;7.840;2023-05-29T13:16:56;36.90;27.20
21807;DHT22;11065;50.786;7.840;2023-05-29T13:19:24;36.80;27.20
21807;DHT22;11065;50.786;7.840;2023-05-29T13:21:52;36.80;27.20
21807;DHT22;11065;50.786;7.840;2023-05-29T13:24:20;36.80;27.20
21807;DHT22;11065;50.786;7.840;2023-05-29T13:26:49;36.80;27.30
21807;DHT22;11065;50.786;7.840;2023-05-29T13:29:18;36.90;27.30
21807;DHT22;11065;50.786;7.840;2023-05-29T13:31:46;36.80;27.20
21807;DHT22;11065;50.786;7.840;2023-05-29T13:34:14;36.80;27.20
21807;DHT22;11065;50.786;7.840;2023-05-29T13:36:42;36.80;27.30
21807;DHT22;11065;50.786;7.840;2023-05-29T13:39:11;36.90;27.30
21807;DHT22;11065;50.786;7.840;2023-05-29T13:41:39;36.90;27.30
21807;DHT22;11065;50.786;7.840;2023-05-29T13:44:08;36.90;27.20
21807;DHT22;11065;50.786;7.840;2023-05-29T13:46:37;36.90;27.20
21807;DHT22;11065;50.786;7.840;2023-05-29T13:49:05;36.90;27.20
21807;DHT22;11065;50.786;7.840;2023-05-29T13:51:34;36.90;27.20
21807;DHT22;11065;50.786;7.840;2023-05-29T13:54:03;36.90;27.20
21807;DHT22;11065;50.786;7.840;2023-05-29T13:56:31;36.80;27.00
21807;DHT22;11065;50.786;7.840;2023-05-29T13:58:59;36.70;27.00
21807;DHT22;11065;50.786;7.840;2023-05-29T14:01:33;36.60;27.00
21807;DHT22;11065;50.786;7.840;2023-05-29T14:04:01;36.50;27.10
21807;DHT22;11065;50.786;7.840;2023-05-29T14:06:30;36.30;27.10
21807;DHT22;11065;50.786;7.840;2023-05-29T14:08:59;36.30;27.10
21807;DHT22;11065;50.786;7.840;2023-05-29T14:11:27;36.20;27.20
21807;DHT22;11065;50.786;7.840;2023-05-29T14:13:55;36.20;27.20
21807;DHT22;11065;50.786;7.840;2023-05-29T14:16:23;36.00;27.10
21807;DHT22;11065;50.786;7.840;2023-05-29T14:18:53;35.90;27.10
21807;DHT22;11065;50.786;7.840;2023-05-29T14:21:21;35.90;27.20
21807;DHT22;11065;50.786;7.840;2023-05-29T14:23:49;35.80;27.30
21807;DHT22;11065;50.786;7.840;2023-05-29T14:26:17;35.80;27.30
21807;DHT22;11065;50.786;7.840;2023-05-29T14:28:45;35.70;27.30
21807;DHT22;11065;50.786;7.840;2023-05-29T14:31:14;35.60;27.20
21807;DHT22;11065;50.786;7.840;2023-05-29T14:33:42;35.50;27.20
21807;DHT22;11065;50.786;7.840;2023-05-29T14:36:12;35.40;27.20
21807;DHT22;11065;50.786;7.840;2023-05-29T14:38:40;35.30;27.30
21807;DHT22;11065;50.786;7.840;2023-05-29T14:41:09;35.20;27.40
21807;DHT22;11065;50.786;7.840;2023-05-29T14:43:38;35.10;27.30
21807;DHT22;11065;50.786;7.840;2023-05-29T14:46:06;34.90;27.40
21807;DHT22;11065;50.786;7.840;2023-05-29T14:48:34;34.90;27.50
21807;DHT22;11065;50.786;7.840;2023-05-29T14:51:02;34.80;27.50
21807;DHT22;11065;50.786;7.840;2023-05-29T14:53:31;34.70;27.40
21807;DHT22;11065;50.786;7.840;2023-05-29T14:55:59;34.70;27.50
21807;DHT22;11065;50.786;7.840;2023-05-29T14:58:28;34.60;27.50
21807;DHT22;11065;50.786;7.840;2023-05-29T15:00:56;34.60;27.70
21807;DHT22;11065;50.786;7.840;2023-05-29T15:03:24;34.60;27.70
21807;DHT22;11065;50.786;7.840;2023-05-29T15:05:53;34.60;27.70
21807;DHT22;11065;50.786;7.840;2023-05-29T15:08:22;34.50;27.70
21807;DHT22;11065;50.786;7.840;2023-05-29T15:10:51;34.50;27.60
21807;DHT22;11065;50.786;7.840;2023-05-29T15:13:19;34.50;27.70
21807;DHT22;11065;50.786;7.840;2023-05-29T15:15:47;34.50;27.60
21807;DHT22;11065;50.786;7.840;2023-05-29T15:18:15;34.50;27.60
21807;DHT22;11065;50.786;7.840;2023-05-29T15:20:44;34.50;27.70
21807;DHT22;11065;50.786;7.840;2023-05-29T15:23:12;34.40;27.70
21807;DHT22;11065;50.786;7.840;2023-05-29T15:25:39;34.40;27.70
21807;DHT22;11065;50.786;7.840;2023-05-29T15:28:09;34.40;27.70
21807;DHT22;11065;50.786;7.840;2023-05-29T15:30:39;34.30;27.60
21807;DHT22;11065;50.786;7.840;2023-05-29T15:33:07;34.30;27.70
21807;DHT22;11065;50.786;7.840;2023-05-29T15:35:37;34.10;27.50
21807;DHT22;11065;50.786;7.840;2023-05-29T15:38:05;34.00;27.60
21807;DHT22;11065;50.786;7.840;2023-05-29T15:40:33;34.00;27.60
21807;DHT22;11065;50.786;7.840;2023-05-29T15:43:04;33.90;27.60
21807;DHT22;11065;50.786;7.840;2023-05-29T15:45:33;33.80;27.60
21807;DHT22;11065;50.786;7.840;2023-05-29T15:48:01;33.70;27.70
21807;DHT22;11065;50.786;7.840;2023-05-29T15:50:29;33.60;27.60